Time;durP1;ratioP1;P1;durP2;ratioP2;P2;SDS_P1;SDS_P2;PMS_P1;PMS_P2;Temp;Humidity;BMP_temperature;BMP_pressure;BME280_temperature;BME280_humidity;BME280_pressure;Samples;Min_cycle;Max_cycle;Signal;HPM_P1;HPM_P2
2023/10/16 00:00:30;;;;;;;5.75;3.80;;;;;;;8.23;61.60;99686.88;5149829;27;20114;-75
2023/10/16 00:02:59;;;;;;;4.95;3.20;;;;;;;8.17;61.48;99679.22;5131778;27;20035;-75
2023/10/16 00:05:31;;;;;;;4.90;3.45;;;;;;;8.21;61.29;99684.31;5150280;27;20059;-75
2023/10/16 00:08:05;;;;;;;3.72;3.28;;;;;;;8.16;61.43;99685.41;5132458;27;20074;-76
2023/10/16 00:10:32;;;;;;;4.72;3.17;;;;;;;7.77;62.14;99622.72;5131334;27;20121;-75
2023/10/16 00:13:04;;;;;;;4.15;3.58;;;;;;;8.15;61.94;99684.56;5150013;27;20058;-76
2023/10/16 00:15:40;;;;;;;5.43;3.67;;;;;;;8.08;62.25;99683.06;5131565;27;20067;-76
2023/10/16 00:18:13;;;;;;;6.00;3.78;;;;;;;8.15;62.13;99684.56;5131452;27;20039;-76
2023/10/16 00:20:41;;;;;;;4.38;3.67;;;;;;;8.17;61.66;99684.50;5131394;27;20035;-76
2023/10/16 00:23:11;;;;;;;4.70;3.40;;;;;;;8.16;62.15;99685.41;5149616;27;20106;-76
2023/10/16 00:25:39;;;;;;;4.75;3.58;;;;;;;8.19;62.02;99694.06;5149584;27;20103;-76
2023/10/16 00:28:07;;;;;;;4.85;3.53;;;;;;;8.00;61.65;99651.72;5149695;27;20045;-77
2023/10/16 00:30:34;;;;;;;4.88;4.05;;;;;;;8.26;61.65;99687.63;5149272;27;20055;-76
2023/10/16 00:33:01;;;;;;;5.30;4.03;;;;;;;8.16;61.91;99688.06;5149333;27;20035;-76
2023/10/16 00:35:28;;;;;;;5.60;4.05;;;;;;;8.04;62.37;99692.03;5131082;27;20343;-75
2023/10/16 00:37:57;;;;;;;5.07;4.30;;;;;;;7.99;62.52;99684.31;5149336;27;20043;-75
2023/10/16 00:40:32;;;;;;;5.70;3.85;;;;;;;8.03;62.28;99688.53;5131803;27;20085;-75
2023/10/16 00:43:06;;;;;;;6.18;4.40;;;;;;;7.92;62.91;99682.81;5149300;27;20054;-75
2023/10/16 00:45:46;;;;;;;5.32;4.03;;;;;;;7.79;63.59;99691.28;5148874;27;20099;-75
2023/10/16 00:48:15;;;;;;;5.13;3.90;;;;;;;7.52;63.99;99643.06;5130869;27;20050;-76
2023/10/16 00:50:43;;;;;;;4.45;3.83;;;;;;;7.71;63.04;99649.34;5148816;27;20074;-76
2023/10/16 00:53:10;;;;;;;5.80;3.85;;;;;;;7.93;62.61;99686.31;5148812;27;20031;-76
2023/10/16 00:55:38;;;;;;;6.13;3.92;;;;;;;7.40;64.07;99638.25;5131053;27;20192;-76
2023/10/16 00:58:06;;;;;;;4.80;4.03;;;;;;;7.62;64.31;99691.91;5148693;27;20039;-76
2023/10/16 01:00:35;;;;;;;5.88;4.20;;;;;;;7.76;63.91;99701.94;5148623;27;20191;-76
2023/10/16 01:03:04;;;;;;;5.78;4.65;;;;;;;7.84;63.41;99698.09;5130612;27;20043;-76
2023/10/16 01:05:33;;;;;;;4.43;4.03;;;;;;;7.91;62.75;99691.66;5131127;27;20049;-76
2023/10/16 01:08:01;;;;;;;5.10;4.03;;;;;;;7.95;62.48;99708.22;5149102;27;20050;-76
2023/10/16 01:10:28;;;;;;;5.63;4.38;;;;;;;8.05;62.14;99699.03;5149014;27;20073;-76
2023/10/16 01:13:03;;;;;;;4.38;3.80;;;;;;;7.81;62.99;99697.34;5131539;27;20066;-75
2023/10/16 01:15:30;;;;;;;5.90;4.13;;;;;;;7.83;62.84;99693.75;5130282;27;20043;-75
2023/10/16 01:17:57;;;;;;;4.60;3.95;;;;;;;7.78;63.49;99698.34;5130304;27;20039;-75
2023/10/16 01:20:23;;;;;;;4.70;4.20;;;;;;;7.89;62.86;99695.28;5148504;27;20047;-75
2023/10/16 01:22:52;;;;;;;4.82;3.75;;;;;;;7.91;62.46;99694.28;5148176;27;20055;-76
2023/10/16 01:25:20;;;;;;;5.65;4.60;;;;;;;7.82;62.71;99705.22;5148136;27;20043;-75
2023/10/16 01:27:47;;;;;;;4.60;3.70;;;;;;;7.83;62.79;99704.28;5148663;27;20096;-75
2023/10/16 01:30:17;;;;;;;4.75;3.58;;;;;;;7.32;62.50;99620.06;5148032;27;20051;-75
2023/10/16 01:32:43;;;;;;;4.82;4.22;;;;;;;7.79;62.55;99696.56;5147873;27;20047;-75
2023/10/16 01:35:10;;;;;;;5.50;3.85;;;;;;;7.74;62.86;99703.78;5148468;27;20094;-75
2023/10/16 01:37:41;;;;;;;4.68;3.78;;;;;;;7.69;63.18;99701.31;5130222;27;20228;-75
2023/10/16 01:40:17;;;;;;;5.03;3.75;;;;;;;7.85;62.44;99697.19;5129843;27;20180;-75
2023/10/16 01:42:45;;;;;;;4.43;3.70;;;;;;;7.80;62.56;99701.78;5148110;27;20303;-75
2023/10/16 01:45:13;;;;;;;9.45;5.85;;;;;;;7.66;63.09;99706.72;5146592;27;20315;-75
2023/10/16 01:47:40;;;;;;;7.90;5.25;;;;;;;7.14;63.13;99607.56;5147689;27;20207;-76
2023/10/16 01:50:12;;;;;;;5.28;4.10;;;;;;;6.94;62.79;99563.50;5130224;27;20060;-76
2023/10/16 01:52:40;;;;;;;5.40;4.18;;;;;;;7.81;62.15;99711.41;5129578;27;20241;-76
2023/10/16 01:55:15;;;;;;;4.60;3.80;;;;;;;7.67;62.65;99709.28;5129512;27;20075;-76
2023/10/16 01:57:44;;;;;;;4.30;3.60;;;;;;;7.77;61.89;99711.59;5147465;27;20046;-76
2023/10/16 02:00:16;;;;;;;5.30;3.88;;;;;;;7.73;62.65;99716.13;5147753;27;20047;-76
2023/10/16 02:02:43;;;;;;;4.72;4.00;;;;;;;7.59;63.09;99714.00;5147400;27;20035;-73
2023/10/16 02:05:11;;;;;;;5.47;4.22;;;;;;;7.66;62.43;99715.47;5147350;27;20051;-73
2023/10/16 02:07:43;;;;;;;4.18;3.78;;;;;;;7.67;62.74;99711.06;5147870;27;20353;-73
2023/10/16 02:10:12;;;;;;;4.97;4.45;;;;;;;7.76;61.70;99710.72;5147236;27;20046;-74
2023/10/16 02:12:39;;;;;;;5.63;3.97;;;;;;;7.66;62.41;99717.25;5147197;27;20247;-74
2023/10/16 02:15:08;;;;;;;4.38;3.97;;;;;;;7.11;62.76;99645.44;5130301;27;20061;-74
2023/10/16 02:17:39;;;;;;;4.57;3.70;;;;;;;7.59;62.61;99723.69;5129962;27;20043;-72
2023/10/16 02:20:11;;;;;;;4.47;3.70;;;;;;;7.66;62.32;99726.03;5147404;27;20197;-73
2023/10/16 02:22:41;;;;;;;5.03;4.13;;;;;;;7.71;61.42;99731.16;5147364;27;20105;-75
2023/10/16 02:25:10;;;;;;;5.10;3.90;;;;;;;7.70;61.25;99727.66;5147394;27;20042;-76
2023/10/16 02:27:37;;;;;;;5.60;3.63;;;;;;;7.68;61.32;99726.84;5129006;27;20283;-76
2023/10/16 02:30:16;;;;;;;4.78;3.67;;;;;;;7.62;61.46;99719.16;5129640;27;20043;-76
2023/10/16 02:32:44;;;;;;;3.75;3.10;;;;;;;7.57;61.40;99722.88;5146944;27;20110;-76
2023/10/16 02:35:13;;;;;;;5.68;3.55;;;;;;;7.65;61.41;99726.09;5147373;27;20279;-76
2023/10/16 02:37:41;;;;;;;4.43;3.42;;;;;;;7.31;60.94;99669.28;5146851;27;20104;-75
2023/10/16 02:40:11;;;;;;;3.97;2.88;;;;;;;7.50;61.40;99737.22;5128809;27;20054;-76
2023/10/16 02:42:40;;;;;;;6.10;3.47;;;;;;;7.40;61.37;99743.75;5128820;28;20043;-76
2023/10/16 02:45:23;;;;;;;4.93;3.40;;;;;;;7.52;61.27;99727.47;5146694;27;20053;-75
2023/10/16 02:47:53;;;;;;;4.75;3.90;;;;;;;6.98;61.44;99645.03;5146724;27;20055;-75
2023/10/16 02:50:20;;;;;;;6.15;3.88;;;;;;;7.40;61.59;99728.78;5147281;27;20264;-75
2023/10/16 02:52:47;;;;;;;6.60;4.07;;;;;;;7.04;61.43;99667.66;5128661;28;20334;-76
2023/10/16 02:55:15;;;;;;;5.53;3.65;;;;;;;7.38;61.83;99728.81;5128580;28;20077;-76
2023/10/16 02:57:42;;;;;;;3.50;3.00;;;;;;;7.30;61.15;99725.56;5146652;27;20039;-76
2023/10/16 03:00:16;;;;;;;4.85;3.58;;;;;;;7.17;61.15;99716.38;5128719;28;20046;-75
2023/10/16 03:02:46;;;;;;;4.00;3.00;;;;;;;7.06;61.22;99693.03;5130109;28;20239;-75
2023/10/16 03:05:21;;;;;;;3.80;3.17;;;;;;;7.32;61.70;99726.38;5128634;28;20080;-75
2023/10/16 03:07:50;;;;;;;3.55;3.00;;;;;;;7.18;61.70;99735.69;5147071;28;20050;-75
2023/10/16 03:10:17;;;;;;;4.40;3.35;;;;;;;6.38;62.02;99619.88;5146785;28;20066;-76
2023/10/16 03:12:43;;;;;;;4.25;3.35;;;;;;;7.20;62.42;99736.50;5146489;28;20066;-76
2023/10/16 03:15:26;;;;;;;3.88;3.20;;;;;;;7.22;62.09;99743.44;5128344;28;20047;-76
2023/10/16 03:17:54;;;;;;;3.85;3.13;;;;;;;7.23;62.01;99752.22;5146755;28;20069;-76
2023/10/16 03:20:24;;;;;;;3.97;3.15;;;;;;;7.17;61.81;99741.88;5128466;28;20043;-76
2023/10/16 03:22:53;;;;;;;4.30;3.17;;;;;;;7.24;62.76;99751.28;5111624;28;20031;-75
2023/10/16 03:25:27;;;;;;;3.45;2.83;;;;;;;7.20;61.55;99745.28;5146667;28;20035;-75
2023/10/16 03:27:55;;;;;;;;;;;;;;;7.10;62.05;99751.78;5146839;28;20210;-76
2023/10/16 03:30:25;;;;;;;3.85;2.67;;;;;;;7.13;62.00;99748.19;5128339;28;19915;-76
2023/10/16 03:32:53;;;;;;;3.65;2.97;;;;;;;7.14;62.22;99753.41;5146360;28;20103;-76
2023/10/16 03:35:26;;;;;;;3.38;2.83;;;;;;;7.18;62.02;99747.09;5128865;28;20210;-76
2023/10/16 03:37:55;;;;;;;4.78;3.38;;;;;;;7.15;61.88;99752.47;5128499;28;20043;-76
2023/10/16 03:40:24;;;;;;;3.95;2.75;;;;;;;6.70;61.25;99689.03;5146938;28;20047;-75
2023/10/16 03:42:51;;;;;;;3.67;2.35;;;;;;;7.15;61.52;99749.84;5128185;28;20122;-76
2023/10/16 03:45:20;;;;;;;6.38;2.80;;;;;;;6.55;60.70;99652.66;5127997;28;20307;-76
2023/10/16 03:47:51;;;;;;;2.78;2.10;;;;;;;6.48;61.25;99662.56;5146559;28;20059;-76
2023/10/16 03:50:23;;;;;;;3.10;2.08;;;;;;;6.83;61.37;99700.03;5128136;28;20233;-76
2023/10/16 03:52:50;;;;;;;4.75;2.42;;;;;;;7.04;61.57;99762.53;5146415;28;20077;-76
2023/10/16 03:55:24;;;;;;;2.75;2.38;;;;;;;7.14;61.34;99756.03;5146807;28;20299;-76
2023/10/16 03:57:51;;;;;;;2.70;2.30;;;;;;;7.23;60.67;99757.47;5129286;28;20176;-76
2023/10/16 04:00:19;;;;;;;2.97;2.22;;;;;;;7.23;60.75;99753.06;5146972;28;20049;-76
2023/10/16 04:02:46;;;;;;;3.88;2.38;;;;;;;6.76;60.95;99662.47;5146242;28;20039;-76
2023/10/16 04:07:54;;;;;;;3.40;2.60;;;;;;;7.28;60.84;99748.50;5128785;28;20245;-76
2023/10/16 04:10:28;;;;;;;3.30;2.42;;;;;;;7.20;60.48;99747.03;5150236;27;20248;-76
2023/10/16 04:12:54;;;;;;;3.50;2.65;;;;;;;7.27;60.95;99754.69;5131794;27;20035;-76
2023/10/16 04:15:34;;;;;;;3.92;2.85;;;;;;;7.30;60.05;99756.34;5131455;27;20080;-76
2023/10/16 04:18:04;;;;;;;3.67;2.63;;;;;;;7.31;60.01;99756.31;5149501;27;20043;-76
2023/10/16 04:20:43;;;;;;;2.83;2.40;;;;;;;7.37;59.81;99752.63;5114697;27;20262;-76
2023/10/16 04:23:29;;;;;;;3.75;3.08;;;;;;;7.38;59.71;99757.84;5149697;27;20043;-76
2023/10/16 04:31:44;;;;;;;4.65;3.13;;;;;;;7.26;61.09;99758.25;5131334;27;20070;-76
2023/10/16 04:34:24;;;;;;;6.63;3.70;;;;;;;7.35;59.95;99760.59;5131070;27;20043;-76
2023/10/16 04:36:52;;;;;;;3.63;3.00;;;;;;;7.16;60.15;99727.84;5149086;27;20070;-76
2023/10/16 04:40:45;;;;;;;4.10;3.00;;;;;;;7.25;61.28;99756.53;5149634;27;20045;-76
2023/10/16 04:47:55;;;;;;;5.57;3.42;;;;;;;7.16;60.80;99767.38;5130448;27;20066;-76
2023/10/16 04:50:29;;;;;;;4.43;3.47;;;;;;;7.22;60.66;99769.81;5148825;27;20043;-75
2023/10/16 04:53:08;;;;;;;6.00;3.47;;;;;;;7.28;60.22;99774.00;5130725;27;20047;-76
2023/10/16 04:55:54;;;;;;;4.78;3.50;;;;;;;7.23;60.73;99766.25;5130629;27;20064;-76
2023/10/16 04:58:39;;;;;;;4.50;3.65;;;;;;;7.21;61.25;99764.59;5130759;27;20043;-76
2023/10/16 05:06:49;;;;;;;4.50;3.27;;;;;;;7.01;62.32;99766.13;5130503;27;20110;-76
2023/10/16 05:17:58;;;;;;;4.97;3.58;;;;;;;7.12;61.48;99759.63;5129286;27;20084;-76
2023/10/16 05:20:52;;;;;;;4.35;3.60;;;;;;;7.11;61.82;99761.41;5133235;27;20073;-76
2023/10/16 06:15:23;;;;;;;6.13;4.27;;;;;;;7.07;63.41;99805.47;5147322;27;20043;-75
2023/10/16 06:17:51;;;;;;;5.00;4.50;;;;;;;7.10;63.48;99814.19;5147674;27;20409;-76
2023/10/16 06:20:21;;;;;;;6.43;4.18;;;;;;;7.16;62.87;99813.97;5129570;27;20054;-75
2023/10/16 06:22:51;;;;;;;5.57;4.60;;;;;;;7.20;62.88;99813.81;5128848;27;20051;-75
2023/10/16 06:25:28;;;;;;;5.72;4.75;;;;;;;7.16;63.19;99820.09;5147599;27;20043;-75
2023/10/16 06:27:55;;;;;;;5.05;4.38;;;;;;;6.63;63.22;99729.66;5129433;27;20043;-76
2023/10/16 06:30:23;;;;;;;6.47;4.38;;;;;;;7.12;63.22;99821.13;5147225;27;20176;-76
2023/10/16 06:32:52;;;;;;;6.28;5.15;;;;;;;6.62;63.87;99744.59;5146710;27;20049;-76
2023/10/16 06:35:20;;;;;;;6.32;4.68;;;;;;;7.05;63.59;99806.44;5147403;27;20110;-76
2023/10/16 06:37:52;;;;;;;5.43;4.70;;;;;;;7.18;63.30;99813.00;5147386;27;20088;-76
2023/10/16 06:40:24;;;;;;;6.88;5.50;;;;;;;7.18;63.42;99812.16;5128607;27;20046;-76
2023/10/16 06:42:54;;;;;;;5.63;4.43;;;;;;;6.64;63.94;99739.28;5129790;27;20046;-76
2023/10/16 06:45:27;;;;;;;5.28;4.28;;;;;;;7.25;63.91;99816.28;5124939;28;20055;-76
2023/10/16 06:47:58;;;;;;;6.75;4.50;;;;;;;7.32;62.90;99817.81;5124966;28;20068;-75
2023/10/16 06:50:42;;;;;;;6.18;4.78;;;;;;;6.89;63.44;99731.44;5125839;28;20098;-75
2023/10/16 06:53:09;;;;;;;4.75;3.92;;;;;;;7.46;62.17;99820.00;5125402;28;20066;-76
2023/10/16 06:55:36;;;;;;;6.00;4.78;;;;;;;6.44;62.30;99629.34;5125091;28;20036;-76
2023/10/16 06:58:02;;;;;;;8.30;4.70;;;;;;;7.51;62.92;99811.00;5124937;28;20221;-75
2023/10/16 07:00:32;;;;;;;8.02;4.38;;;;;;;7.56;63.04;99808.19;5126131;28;20066;-75
2023/10/16 07:03:01;;;;;;;4.82;4.22;;;;;;;6.59;62.74;99610.38;5125054;28;20054;-75
2023/10/16 07:05:42;;;;;;;4.82;3.97;;;;;;;7.70;62.44;99811.22;5126055;28;20077;-75
2023/10/16 07:08:09;;;;;;;5.03;4.07;;;;;;;7.09;62.51;99704.41;5125888;28;20066;-76
2023/10/16 07:10:40;;;;;;;5.20;4.05;;;;;;;7.87;62.29;99803.53;5125897;28;20039;-76
2023/10/16 07:13:10;;;;;;;5.25;4.05;;;;;;;7.34;62.32;99687.66;5125853;28;20119;-76
2023/10/16 07:15:37;;;;;;;5.30;4.07;;;;;;;8.01;61.87;99785.41;5125743;28;20207;-75
2023/10/16 07:18:05;;;;;;;4.93;4.18;;;;;;;8.07;61.92;99788.72;5125496;28;20040;-75
2023/10/16 07:20:51;;;;;;;6.10;4.47;;;;;;;7.72;61.20;99710.91;5125715;28;20058;-75
2023/10/16 07:23:20;;;;;;;5.13;4.40;;;;;;;8.24;61.36;99791.59;5125924;28;20093;-75
2023/10/16 07:25:54;;;;;;;4.40;3.70;;;;;;;8.30;61.58;99792.19;5125701;28;20035;-75
2023/10/16 07:28:22;;;;;;;4.80;4.10;;;;;;;8.36;61.54;99799.03;5125520;28;20056;-75
2023/10/16 07:30:49;;;;;;;6.18;4.57;;;;;;;8.19;60.93;99769.78;5126153;28;20047;-75
2023/10/16 07:33:20;;;;;;;5.22;3.83;;;;;;;7.04;60.53;99552.56;5125656;28;20036;-75
2023/10/16 07:35:50;;;;;;;8.40;4.45;;;;;;;8.66;60.21;99795.16;5125585;28;20302;-74
2023/10/16 07:38:20;;;;;;;4.07;3.67;;;;;;;8.89;59.72;99796.88;5126032;28;20046;-75
2023/10/16 07:40:52;;;;;;;5.85;4.22;;;;;;;9.10;59.74;99796.91;5124620;28;20096;-75
2023/10/16 07:43:26;;;;;;;6.05;4.68;;;;;;;9.23;59.39;99800.78;5125849;28;20040;-75
2023/10/16 07:45:53;;;;;;;6.35;4.43;;;;;;;9.40;58.86;99800.06;5129771;28;20050;-75
2023/10/16 07:48:21;;;;;;;6.25;4.13;;;;;;;9.36;59.95;99804.63;5129236;28;20080;-75
2023/10/16 07:50:51;;;;;;;7.55;4.43;;;;;;;9.21;59.88;99810.56;5129998;28;20066;-75
2023/10/16 07:53:19;;;;;;;5.47;4.57;;;;;;;9.21;60.31;99800.84;5128443;28;20278;-75
2023/10/16 07:55:57;;;;;;;5.72;4.30;;;;;;;9.29;59.55;99800.53;5128315;28;20047;-75
2023/10/16 07:58:33;;;;;;;4.63;3.78;;;;;;;9.39;59.25;99796.56;5129742;28;20051;-75
2023/10/16 08:01:17;;;;;;;5.47;4.47;;;;;;;9.60;57.88;99794.78;5128412;28;20299;-75
2023/10/16 08:03:46;;;;;;;5.25;4.28;;;;;;;9.79;58.49;99787.75;5129433;28;20048;-75
2023/10/16 08:06:23;;;;;;;5.65;4.13;;;;;;;9.31;56.86;99716.66;5128967;28;20313;-75
2023/10/16 08:09:19;;;;;;;5.63;4.45;;;;;;;9.24;55.91;99649.09;5127710;28;20039;-75
2023/10/16 08:11:36;;;;;;;5.18;4.25;;;;;;;10.16;55.48;99781.63;5127850;28;20040;-75
2023/10/16 08:14:06;;;;;;;5.55;4.05;;;;;;;10.31;54.94;99784.47;5128038;28;20058;-75
2023/10/16 08:16:33;;;;;;;4.53;3.53;;;;;;;10.48;54.59;99780.09;5128779;28;20243;-75
2023/10/16 08:19:00;;;;;;;5.68;4.35;;;;;;;10.39;54.10;99735.50;5128017;28;20085;-75
2023/10/16 08:21:28;;;;;;;4.38;3.47;;;;;;;10.79;53.74;99784.81;5129014;28;20063;-75
2023/10/16 08:23:57;;;;;;;4.75;3.30;;;;;;;10.85;52.41;99778.34;5128861;28;20043;-75
2023/10/16 08:26:41;;;;;;;4.35;3.50;;;;;;;10.75;54.18;99777.03;5127923;28;20295;-75
2023/10/16 08:29:12;;;;;;;5.35;2.90;;;;;;;10.94;51.66;99775.22;5129176;28;20102;-75
2023/10/16 08:31:42;;;;;;;4.75;3.33;;;;;;;10.83;54.12;99780.19;5127649;28;20031;-75
2023/10/16 08:34:09;;;;;;;7.93;3.15;;;;;;;10.71;54.05;99776.34;5128455;28;20105;-75
2023/10/16 08:36:38;;;;;;;4.00;2.65;;;;;;;10.71;53.91;99775.47;5127487;28;20077;-75
2023/10/16 08:39:09;;;;;;;4.43;3.13;;;;;;;10.83;53.03;99774.91;5128785;28;20337;-75
2023/10/16 08:41:45;;;;;;;3.20;2.13;;;;;;;10.80;52.26;99775.06;5128721;28;20048;-74
2023/10/16 08:44:17;;;;;;;3.53;2.25;;;;;;;10.82;52.34;99771.38;5135445;27;20063;-75
2023/10/16 08:46:54;;;;;;;3.85;2.45;;;;;;;10.85;50.05;99768.59;5149162;27;20039;-74
2023/10/16 08:49:23;;;;;;;4.30;1.90;;;;;;;10.97;51.31;99768.91;5130781;27;20043;-75
2023/10/16 08:51:52;;;;;;;3.35;2.08;;;;;;;11.01;51.04;99766.03;5130704;27;20043;-75
2023/10/16 08:57:07;;;;;;;3.30;2.53;;;;;;;11.10;49.99;99770.00;5148962;27;20051;-75
2023/10/16 08:59:36;;;;;;;3.05;2.22;;;;;;;11.09;50.28;99766.50;5148527;27;20043;-75
2023/10/16 09:02:11;;;;;;;3.08;2.45;;;;;;;11.15;50.00;99758.22;5148961;27;20042;-75
2023/10/16 09:04:41;;;;;;;3.80;2.50;;;;;;;11.26;49.89;99759.47;5130531;27;20046;-75
2023/10/16 09:07:11;;;;;;;3.25;2.53;;;;;;;11.30;50.66;99767.19;5131375;27;20039;-75
2023/10/16 09:09:41;;;;;;;4.85;2.92;;;;;;;11.34;49.93;99751.97;5148686;27;20054;-75
2023/10/16 09:12:10;;;;;;;4.10;2.80;;;;;;;11.44;50.64;99762.03;5148089;27;20047;-75
2023/10/16 09:14:38;;;;;;;3.33;2.33;;;;;;;10.72;49.79;99656.09;5148655;27;20059;-75
2023/10/16 09:17:06;;;;;;;3.22;2.30;;;;;;;11.05;50.01;99684.50;5130071;27;20065;-75
2023/10/16 09:19:34;;;;;;;4.65;2.60;;;;;;;10.57;50.03;99639.19;5148515;27;20043;-75
2023/10/16 09:22:04;;;;;;;3.72;2.90;;;;;;;11.44;50.28;99759.38;5148507;27;20039;-75
2023/10/16 09:24:33;;;;;;;4.45;2.80;;;;;;;11.03;49.44;99686.38;5148449;27;20047;-75
2023/10/16 09:27:00;;;;;;;5.45;2.92;;;;;;;11.60;49.38;99745.28;5148264;27;20039;-75
2023/10/16 09:29:29;;;;;;;4.45;2.75;;;;;;;11.58;49.88;99756.00;5148004;27;20035;-75
2023/10/16 09:32:02;;;;;;;4.43;3.05;;;;;;;9.29;50.38;99353.53;5148229;27;20307;-75
2023/10/16 09:34:30;;;;;;;5.78;2.80;;;;;;;11.75;48.93;99737.38;5130044;27;20056;-75
2023/10/16 09:37:20;;;;;;;4.15;3.15;;;;;;;11.66;47.29;99683.91;5148020;27;20111;-74
2023/10/16 09:39:49;;;;;;;4.07;2.78;;;;;;;12.10;47.83;99735.47;5129675;27;20066;-75
2023/10/16 09:42:16;;;;;;;5.03;2.80;;;;;;;12.10;48.09;99737.28;5148334;27;20046;-75
2023/10/16 09:44:56;;;;;;;4.85;3.10;;;;;;;12.25;47.07;99736.44;5126024;28;20075;-74
2023/10/16 09:47:26;;;;;;;4.28;2.50;;;;;;;12.36;46.92;99739.38;5127350;28;20039;-74
2023/10/16 09:49:55;;;;;;;4.43;2.47;;;;;;;12.43;47.16;99730.09;5127018;28;20081;-75
2023/10/16 09:52:22;;;;;;;3.67;2.38;;;;;;;11.31;47.33;99567.25;5125983;28;20093;-75
2023/10/16 09:54:52;;;;;;;4.05;2.30;;;;;;;12.63;46.28;99736.94;5127214;28;20039;-74
2023/10/16 09:57:22;;;;;;;5.05;2.42;;;;;;;12.71;45.33;99732.03;5125996;28;20291;-75
2023/10/16 09:59:54;;;;;;;4.00;2.50;;;;;;;12.84;45.66;99724.19;5125953;28;20069;-74
2023/10/16 10:02:25;;;;;;;4.13;2.80;;;;;;;12.98;44.13;99728.69;5126113;28;20036;-75
2023/10/16 10:04:59;;;;;;;4.63;2.63;;;;;;;13.04;44.68;99713.22;5126632;28;20040;-75
2023/10/16 10:07:37;;;;;;;4.05;3.08;;;;;;;13.26;44.79;99719.94;5125096;28;20039;-74
2023/10/16 10:12:53;;;;;;;4.53;2.80;;;;;;;13.35;44.00;99711.38;5124774;28;20084;-75
2023/10/16 10:15:23;;;;;;;4.18;2.53;;;;;;;13.42;44.69;99708.28;5126373;28;20195;-75
2023/10/16 10:17:54;;;;;;;3.33;2.33;;;;;;;13.41;43.54;99703.03;5126654;28;20089;-74
2023/10/16 10:20:25;;;;;;;4.07;2.90;;;;;;;13.60;45.01;99695.66;5126707;28;20039;-75
2023/10/16 10:22:59;;;;;;;4.13;2.60;;;;;;;13.77;43.81;99694.59;5125486;28;20344;-74
2023/10/16 10:25:35;;;;;;;4.90;3.38;;;;;;;13.76;43.55;99696.41;5126656;28;20047;-74
2023/10/16 10:28:16;;;;;;;4.25;3.10;;;;;;;13.85;43.05;99689.63;5126567;28;20106;-75
2023/10/16 10:30:44;;;;;;;4.97;2.72;;;;;;;13.99;41.92;99678.09;5126574;28;20048;-75
2023/10/16 10:33:13;;;;;;;4.55;2.75;;;;;;;13.41;41.62;99601.84;5126555;28;20188;-75
2023/10/16 10:35:43;;;;;;;7.72;5.97;;;;;;;13.98;41.67;99676.38;5125494;28;20045;-75
2023/10/16 10:38:20;;;;;;;6.18;4.18;;;;;;;14.01;40.87;99682.38;5126271;28;20097;-76
2023/10/16 10:41:16;;;;;;;5.80;3.85;;;;;;;14.13;40.98;99681.59;5126335;28;20077;-76
2023/10/16 10:43:47;;;;;;;6.22;4.43;;;;;;;14.16;42.27;99669.03;5129012;27;20078;-76
2023/10/16 10:46:23;;;;;;;4.35;2.90;;;;;;;13.56;40.20;99553.00;5146643;27;20043;-76
2023/10/16 10:48:50;;;;;;;4.78;3.25;;;;;;;14.23;41.00;99660.53;5129147;27;20039;-76
2023/10/16 10:51:18;;;;;;;4.75;3.20;;;;;;;14.32;40.40;99651.06;5128543;27;20043;-76
2023/10/16 10:53:55;;;;;;;4.32;2.78;;;;;;;14.41;39.32;99655.78;5129442;28;20113;-76
2023/10/16 10:56:30;;;;;;;4.38;3.17;;;;;;;14.44;40.51;99661.78;5146926;27;20047;-76
2023/10/16 10:58:56;;;;;;;5.47;3.30;;;;;;;14.49;39.63;99641.94;5146810;27;20073;-76
2023/10/16 11:01:33;;;;;;;10.45;2.90;;;;;;;14.56;38.93;99635.25;5128543;28;20039;-76
2023/10/16 11:04:01;;;;;;;4.20;3.08;;;;;;;14.39;39.58;99612.38;5129602;28;20046;-74
2023/10/16 11:06:39;;;;;;;4.30;2.72;;;;;;;14.48;38.29;99632.25;5146550;28;20035;-73
2023/10/16 11:09:12;;;;;;;4.70;2.83;;;;;;;14.44;37.56;99628.91;5146910;28;20096;-74
2023/10/16 11:11:44;;;;;;;4.63;3.10;;;;;;;14.62;39.77;99626.91;5128392;28;20122;-76
2023/10/16 11:14:12;;;;;;;3.53;2.40;;;;;;;14.72;39.63;99622.66;5146841;28;20287;-75
2023/10/16 11:16:44;;;;;;;4.13;2.90;;;;;;;14.82;39.04;99614.88;5128380;28;20046;-75
2023/10/16 11:19:10;;;;;;;5.28;3.65;;;;;;;14.83;38.62;99622.78;5150145;27;20083;-76
2023/10/16 11:21:43;;;;;;;3.38;2.33;;;;;;;14.74;39.36;99613.59;5132563;27;20039;-77
2023/10/16 11:24:13;;;;;;;5.10;2.20;;;;;;;14.76;37.71;99586.81;5150638;27;20118;-77
2023/10/16 11:26:45;;;;;;;4.32;2.70;;;;;;;14.83;37.71;99573.88;5150658;27;20039;-79
2023/10/16 11:29:13;;;;;;;3.60;2.45;;;;;;;14.98;37.91;99596.84;5132702;27;20043;-77
2023/10/16 11:31:41;;;;;;;4.25;3.15;;;;;;;15.11;38.30;99596.84;5150333;27;20035;-77
2023/10/16 11:34:13;;;;;;;4.97;3.50;;;;;;;15.07;38.29;99599.72;5132628;27;20191;-77
2023/10/16 11:36:41;;;;;;;3.60;2.65;;;;;;;15.08;37.95;99597.91;5150085;27;20039;-75
2023/10/16 11:39:08;;;;;;;5.78;3.00;;;;;;;15.10;37.61;99587.97;5150118;27;20031;-75
2023/10/16 11:41:37;;;;;;;4.10;2.75;;;;;;;15.11;37.44;99586.16;5132204;27;20039;-75
2023/10/16 11:44:13;;;;;;;3.92;2.55;;;;;;;15.10;37.67;99584.47;5128616;28;20055;-75
2023/10/16 11:46:46;;;;;;;4.47;2.78;;;;;;;15.14;37.23;99584.13;5129148;28;20040;-76
2023/10/16 11:49:29;;;;;;;5.40;3.17;;;;;;;15.08;37.04;99580.09;5129427;28;20050;-76
2023/10/16 11:52:08;;;;;;;4.22;2.40;;;;;;;15.04;36.55;99583.06;5129993;28;20048;-76
2023/10/16 11:54:40;;;;;;;3.80;2.88;;;;;;;15.17;36.84;99580.41;5129857;28;20311;-76
2023/10/16 11:57:07;;;;;;;6.60;5.80;;;;;;;14.87;36.96;99540.69;5130039;28;20093;-75
2023/10/16 11:59:35;;;;;;;5.78;3.80;;;;;;;15.16;36.59;99563.53;5129185;28;20032;-76
2023/10/16 12:02:10;;;;;;;3.97;2.65;;;;;;;15.06;35.39;99574.00;5129477;28;20043;-76
2023/10/16 12:04:40;;;;;;;4.30;2.70;;;;;;;14.69;36.26;99518.81;5129158;28;20049;-75
2023/10/16 12:07:07;;;;;;;9.20;8.25;;;;;;;15.17;37.25;99559.03;5129370;28;20047;-76
2023/10/16 12:09:38;;;;;;;5.95;4.18;;;;;;;15.17;35.71;99554.56;5129185;28;20039;-76
2023/10/16 12:12:06;;;;;;;5.00;3.05;;;;;;;15.17;36.08;99554.56;5129599;28;20062;-75
2023/10/16 12:14:37;;;;;;;3.80;2.53;;;;;;;15.23;35.52;99558.59;5128999;28;20111;-76
2023/10/16 12:17:11;;;;;;;4.05;2.17;;;;;;;15.18;35.91;99550.06;5129147;28;20043;-76
2023/10/16 12:19:38;;;;;;;;;;;;;;;15.19;34.06;99552.63;5129565;28;20048;-76
2023/10/16 12:22:08;;;;;;;3.15;1.98;;;;;;;14.80;35.21;99491.41;5129110;28;19915;-77
2023/10/16 12:24:35;;;;;;;3.70;2.38;;;;;;;15.06;34.27;99515.28;5128283;28;20042;-77
2023/10/16 12:27:02;;;;;;;4.15;2.25;;;;;;;15.10;36.38;99512.38;5127971;28;20057;-76
2023/10/16 12:29:29;;;;;;;2.85;1.80;;;;;;;15.29;33.83;99548.34;5128357;28;20103;-76
2023/10/16 12:31:58;;;;;;;2.70;1.55;;;;;;;14.04;33.55;99364.22;5128885;28;20036;-76
2023/10/16 12:34:31;;;;;;;4.07;1.90;;;;;;;15.23;35.57;99548.78;5129379;28;20104;-77
2023/10/16 12:36:58;;;;;;;3.05;1.95;;;;;;;15.27;34.61;99544.06;5127824;28;20053;-76
2023/10/16 12:39:26;;;;;;;2.60;1.63;;;;;;;15.26;35.11;99539.69;5128291;28;20391;-77
2023/10/16 12:41:54;;;;;;;2.60;1.80;;;;;;;15.22;33.36;99532.88;5129218;28;20043;-77
2023/10/16 12:44:23;;;;;;;5.30;2.10;;;;;;;15.20;33.92;99532.97;5137494;27;20069;-77
2023/10/16 12:46:52;;;;;;;4.63;2.05;;;;;;;15.23;34.52;99530.09;5132685;27;20038;-78
2023/10/16 12:49:18;;;;;;;2.42;1.77;;;;;;;15.34;33.97;99523.97;5150691;27;20081;-78
2023/10/16 12:51:48;;;;;;;3.50;2.47;;;;;;;15.50;33.13;99526.41;5150776;27;20108;-78
2023/10/16 12:54:15;;;;;;;3.85;2.17;;;;;;;15.55;32.43;99530.44;5114987;27;20099;-78
2023/10/16 12:56:43;;;;;;;3.15;1.70;;;;;;;15.43;33.80;99526.00;5149922;27;20043;-78
2023/10/16 12:59:10;;;;;;;7.45;3.33;;;;;;;15.38;33.67;99528.13;5132405;27;20237;-78
2023/10/16 13:01:37;;;;;;;5.20;2.72;;;;;;;15.30;34.38;99530.50;5132509;27;20275;-78
2023/10/16 13:04:13;;;;;;;3.60;2.22;;;;;;;15.22;34.88;99524.88;5132320;27;20096;-77
2023/10/16 13:06:40;;;;;;;4.22;2.92;;;;;;;15.26;33.99;99519.19;5150027;27;20038;-77
2023/10/16 13:09:14;;;;;;;4.70;2.60;;;;;;;15.31;33.59;99517.03;5149627;27;20039;-78
2023/10/16 13:11:41;;;;;;;5.17;4.03;;;;;;;14.53;34.44;99393.63;5150050;27;20311;-77
2023/10/16 13:14:07;;;;;;;5.80;4.45;;;;;;;15.24;33.71;99517.59;5149523;27;20442;-76
2023/10/16 13:16:34;;;;;;;5.45;3.45;;;;;;;15.19;34.37;99517.94;5131552;27;20039;-77
2023/10/16 13:19:03;;;;;;;3.97;3.00;;;;;;;15.17;33.56;99506.50;5149530;27;20318;-77
2023/10/16 13:21:33;;;;;;;4.13;2.80;;;;;;;15.10;33.79;99504.38;5149204;27;20258;-77